createdAt,value
2018-10-09T00:01:01.459Z,100640.13
2018-10-09T00:03:30.000Z,100643.61
2018-10-09T00:05:58.585Z,100638.62
2018-10-09T00:08:27.145Z,100636.60
2018-10-09T00:10:55.900Z,100636.63
2018-10-09T00:13:24.612Z,100632.30
2018-10-09T00:15:53.313Z,100628.14
2018-10-09T00:18:22.057Z,100632.08
2018-10-09T00:20:50.628Z,100626.75
2018-10-09T00:23:19.203Z,100628.10
2018-10-09T00:25:48.143Z,100626.11
2018-10-09T00:28:16.686Z,100628.08
2018-10-09T00:30:45.243Z,100620.78
2018-10-09T00:33:13.926Z,100626.36
2018-10-09T00:35:42.561Z,100632.05
2018-10-09T00:38:11.150Z,100630.39
2018-10-09T00:40:39.685Z,100628.08
2018-10-09T00:43:08.238Z,100627.91
2018-10-09T00:45:37.376Z,100627.84
2018-10-09T00:48:05.956Z,100621.02
2018-10-09T00:50:34.785Z,100615.38
2018-10-09T00:53:04.001Z,100618.17
2018-10-09T00:55:32.689Z,100622.64
2018-10-09T00:58:01.312Z,100611.34
2018-10-09T01:00:32.206Z,100612.30
2018-10-09T01:03:00.801Z,100611.47
2018-10-09T01:05:29.333Z,100617.27
2018-10-09T01:07:58.151Z,100612.30
2018-10-09T01:10:26.709Z,100602.02
2018-10-09T01:12:55.385Z,100602.31
2018-10-09T01:15:23.988Z,100600.95
2018-10-09T01:17:52.620Z,100611.54
2018-10-09T01:20:26.521Z,100611.25
2018-10-09T01:22:55.161Z,100609.80
2018-10-09T01:25:23.827Z,100611.30
2018-10-09T01:27:52.389Z,100608.31
2018-10-09T01:30:20.921Z,100617.59
2018-10-09T01:32:49.520Z,100614.77
2018-10-09T01:35:18.065Z,100608.94
2018-10-09T01:37:46.754Z,100608.56
2018-10-09T01:40:15.484Z,100611.20
2018-10-09T01:42:44.039Z,100610.54
2018-10-09T01:45:12.618Z,100614.24
2018-10-09T01:47:41.517Z,100615.61
2018-10-09T01:50:14.282Z,100615.81
2018-10-09T01:52:43.125Z,100614.66
2018-10-09T01:55:11.709Z,100611.17
2018-10-09T01:57:40.295Z,100613.98
2018-10-09T02:00:09.885Z,100613.03
2018-10-09T02:02:38.563Z,100613.69
2018-10-09T02:05:07.493Z,100613.86
2018-10-09T02:07:36.273Z,100610.55
2018-10-09T02:10:05.493Z,100614.02
2018-10-09T02:12:34.053Z,100605.53
2018-10-09T02:15:03.120Z,100607.61
2018-10-09T02:17:31.673Z,100614.07
2018-10-09T02:20:00.222Z,100617.55
2018-10-09T02:22:28.741Z,100619.59
2018-10-09T02:24:57.554Z,100617.59
2018-10-09T02:27:26.186Z,100614.65
2018-10-09T02:29:54.742Z,100614.31
2018-10-09T02:32:23.298Z,100626.87
2018-10-09T02:34:51.842Z,100630.73
2018-10-09T02:37:20.409Z,100632.92
2018-10-09T02:39:49.041Z,100638.72
2018-10-09T02:42:17.778Z,100633.04
2018-10-09T02:44:46.466Z,100622.91
2018-10-09T02:47:15.018Z,100622.77
2018-10-09T02:49:43.563Z,100613.48
2018-10-09T02:52:12.148Z,100609.52
2018-10-09T02:54:40.694Z,100610.92
2018-10-09T02:57:09.244Z,100614.02
2018-10-09T02:59:38.283Z,100613.64
2018-10-09T03:02:07.011Z,100620.61
2018-10-09T03:04:35.590Z,100620.10
2018-10-09T03:07:04.167Z,100619.44
2018-10-09T03:09:32.732Z,100633.52
2018-10-09T03:12:01.289Z,100632.86
2018-10-09T03:14:29.837Z,100643.34
2018-10-09T03:16:58.834Z,100648.20
2018-10-09T03:19:27.738Z,100645.71
2018-10-09T03:21:56.306Z,100635.44
2018-10-09T03:24:24.885Z,100636.06
2018-10-09T03:26:53.441Z,100641.07
2018-10-09T03:29:22.021Z,100637.98
2018-10-09T03:31:50.568Z,100634.91
2018-10-09T03:34:19.213Z,100629.55
2018-10-09T03:36:47.862Z,100619.92
2018-10-09T03:39:16.422Z,100627.16
2018-10-09T03:41:45.042Z,100624.76
2018-10-09T03:44:13.609Z,100625.38
2018-10-09T03:46:42.162Z,100626.35
2018-10-09T03:49:10.750Z,100628.94
2018-10-09T03:51:39.412Z,100629.42
2018-10-09T03:54:08.126Z,100625.81
2018-10-09T03:56:36.762Z,100627.63
2018-10-09T03:59:05.454Z,100629.34
2018-10-09T04:01:34.031Z,100627.02
2018-10-09T04:04:02.571Z,100618.67
2018-10-09T04:06:31.257Z,100629.48
2018-10-09T04:09:00.229Z,100637.88
2018-10-09T04:11:29.108Z,100639.48
2018-10-09T04:13:57.639Z,100643.80
2018-10-09T04:16:26.190Z,100644.22
2018-10-09T04:18:54.909Z,100639.05
2018-10-09T04:21:23.469Z,100639.75
2018-10-09T04:23:52.090Z,100640.70
2018-10-09T04:26:20.697Z,100634.67
2018-10-09T04:28:49.370Z,100646.55
2018-10-09T04:31:17.952Z,100643.90
2018-10-09T04:33:46.522Z,100640.36
2018-10-09T04:36:15.065Z,100643.66
2018-10-09T04:38:43.649Z,100641.78
2018-10-09T04:41:12.286Z,100641.29
2018-10-09T04:43:40.981Z,100645.42
2018-10-09T04:46:09.525Z,100646.94
2018-10-09T04:48:38.078Z,100648.23
2018-10-09T04:51:06.629Z,100641.24
2018-10-09T04:53:35.418Z,100650.83
2018-10-09T04:56:04.033Z,100650.00
2018-10-09T04:58:32.822Z,100652.50
2018-10-09T05:01:01.469Z,100651.08
2018-10-09T05:03:30.103Z,100639.96
2018-10-09T05:05:58.645Z,100637.86
2018-10-09T05:08:27.221Z,100638.72
2018-10-09T05:10:55.768Z,100637.44
2018-10-09T05:13:24.333Z,100643.14
2018-10-09T05:15:52.989Z,100629.09
2018-10-09T05:18:21.582Z,100630.94
2018-10-09T05:20:50.374Z,100636.61
2018-10-09T05:23:19.096Z,100644.88
2018-10-09T05:25:47.822Z,100642.56
2018-10-09T05:28:16.389Z,100647.70
2018-10-09T05:30:44.948Z,100649.35
2018-10-09T05:33:13.605Z,100652.70
2018-10-09T05:35:42.239Z,100664.31
2018-10-09T05:38:10.967Z,100660.98
2018-10-09T05:40:39.538Z,100665.30
2018-10-09T05:43:08.121Z,100668.98
2018-10-09T05:45:38.597Z,100669.99
2018-10-09T05:48:08.303Z,100670.66
2018-10-09T05:50:37.321Z,100667.16
2018-10-09T05:53:06.051Z,100669.34
2018-10-09T05:55:35.158Z,100671.19
2018-10-09T05:58:03.857Z,100673.02
2018-10-09T06:00:32.685Z,100678.66
2018-10-09T06:03:01.499Z,100679.02
2018-10-09T06:05:30.690Z,100674.34
2018-10-09T06:07:59.273Z,100676.58
2018-10-09T06:10:27.850Z,100673.91
2018-10-09T06:12:56.442Z,100677.27
2018-10-09T06:15:25.183Z,100683.05
2018-10-09T06:17:54.055Z,100689.74
2018-10-09T06:20:22.715Z,100695.67
2018-10-09T06:22:51.559Z,100705.49
2018-10-09T06:25:20.176Z,100711.08
2018-10-09T06:27:48.748Z,100705.50
2018-10-09T06:30:17.314Z,100707.23
2018-10-09T06:32:45.898Z,100703.41
2018-10-09T06:35:14.607Z,100704.09
2018-10-09T06:37:43.341Z,100695.03
2018-10-09T06:40:11.918Z,100697.38
2018-10-09T06:42:40.529Z,100700.47
2018-10-09T06:45:09.266Z,100701.47
2018-10-09T06:47:38.626Z,100702.31
2018-10-09T06:50:07.517Z,100701.22
2018-10-09T06:52:36.243Z,100709.88
2018-10-09T06:55:05.045Z,100705.59
2018-10-09T06:57:33.731Z,100709.67
2018-10-09T07:00:02.350Z,100711.04
2018-10-09T07:02:31.170Z,100720.47
2018-10-09T07:04:59.723Z,100728.87
2018-10-09T07:07:28.271Z,100723.95
2018-10-09T07:09:56.930Z,100726.48
2018-10-09T07:12:25.714Z,100725.66
2018-10-09T07:14:54.423Z,100728.92
2018-10-09T07:17:23.064Z,100733.16
2018-10-09T07:19:51.703Z,100734.11
2018-10-09T07:22:20.258Z,100732.45
2018-10-09T07:24:48.808Z,100734.70
2018-10-09T07:27:17.519Z,100738.33
2018-10-09T07:29:46.204Z,100729.83
2018-10-09T07:32:14.845Z,100720.91
2018-10-09T07:34:43.396Z,100725.75
2018-10-09T07:37:11.936Z,100728.29
2018-10-09T07:39:40.518Z,100725.19
2018-10-09T07:42:09.120Z,100723.59
2018-10-09T07:44:38.274Z,100724.72
2018-10-09T07:47:06.927Z,100731.92
2018-10-09T07:49:35.569Z,100731.75
2018-10-09T07:52:04.163Z,100725.09
2018-10-09T07:54:32.803Z,100734.64
2018-10-09T07:57:01.390Z,100737.80
2018-10-09T07:59:29.976Z,100735.91
2018-10-09T08:01:58.689Z,100742.77
2018-10-09T08:04:27.421Z,100743.86
2018-10-09T08:06:56.009Z,100751.63
2018-10-09T08:09:24.574Z,100752.33
2018-10-09T08:11:53.143Z,100751.75
2018-10-09T08:14:21.713Z,100747.52
2018-10-09T08:16:50.366Z,100751.95
2018-10-09T08:19:18.985Z,100750.84
2018-10-09T08:21:48.122Z,100753.19
2018-10-09T08:24:16.885Z,100753.47
2018-10-09T08:26:45.445Z,100764.02
2018-10-09T08:29:14.054Z,100764.25
2018-10-09T08:31:42.644Z,100765.75
2018-10-09T08:34:13.346Z,100770.72
2018-10-09T08:36:41.898Z,100773.27
2018-10-09T08:39:10.510Z,100778.30
2018-10-09T08:41:39.157Z,100784.47
2018-10-09T08:44:07.709Z,100782.02
2018-10-09T08:46:36.254Z,100778.27
2018-10-09T08:49:04.809Z,100783.23
2018-10-09T08:51:33.386Z,100785.70
2018-10-09T08:54:01.990Z,100792.80
2018-10-09T08:56:30.630Z,100790.32
2018-10-09T08:58:59.345Z,100790.05
2018-10-09T09:01:28.099Z,100780.52
2018-10-09T09:03:56.695Z,100773.61
2018-10-09T09:06:25.346Z,100782.34
2018-10-09T09:08:53.906Z,100776.18
2018-10-09T09:11:22.444Z,100777.53
2018-10-09T09:13:51.081Z,100773.19
2018-10-09T09:16:19.984Z,100770.48
2018-10-09T09:18:48.594Z,100768.02
2018-10-09T09:21:17.256Z,100769.61
2018-10-09T09:23:45.936Z,100763.72
2018-10-09T09:26:14.520Z,100758.94
2018-10-09T09:28:43.223Z,100753.28
2018-10-09T09:31:11.831Z,100756.06
2018-10-09T09:33:40.406Z,100751.28
2018-10-09T09:36:09.059Z,100754.59
2018-10-09T09:38:37.613Z,100747.23
2018-10-09T09:41:06.674Z,100747.09
2018-10-09T09:43:35.274Z,100752.05
2018-10-09T09:46:03.863Z,100751.06
2018-10-09T09:48:32.850Z,100753.56
2018-10-09T09:51:01.514Z,100753.36
2018-10-09T09:53:30.221Z,100759.20
2018-10-09T09:55:58.860Z,100754.09
2018-10-09T09:58:27.506Z,100753.66
2018-10-09T10:00:57.498Z,100760.66
2018-10-09T10:03:26.889Z,100765.27
2018-10-09T10:05:55.613Z,100757.30
2018-10-09T10:08:24.239Z,100759.56
2018-10-09T10:10:52.814Z,100758.31
2018-10-09T10:13:21.429Z,100755.18
2018-10-09T10:15:50.065Z,100759.48
2018-10-09T10:18:18.774Z,100759.47
2018-10-09T10:20:47.388Z,100766.02
2018-10-09T10:23:15.950Z,100770.91
2018-10-09T10:25:44.495Z,100768.61
2018-10-09T10:28:13.246Z,100774.51
2018-10-09T10:30:42.097Z,100768.55
2018-10-09T10:33:10.801Z,100763.28
2018-10-09T10:35:39.419Z,100767.83
2018-10-09T10:38:08.491Z,100756.81
2018-10-09T10:40:37.162Z,100755.74
2018-10-09T10:43:06.006Z,100757.17
2018-10-09T10:45:34.595Z,100748.58
2018-10-09T10:48:03.579Z,100753.61
2018-10-09T10:50:32.231Z,100749.62
2018-10-09T10:53:00.791Z,100750.72
2018-10-09T10:55:29.377Z,100748.36
2018-10-09T10:57:58.058Z,100744.18
2018-10-09T11:00:26.626Z,100746.27
2018-10-09T11:02:55.192Z,100738.48
2018-10-09T11:05:23.876Z,100746.16
2018-10-09T11:07:52.449Z,100742.88
2018-10-09T11:10:21.250Z,100746.94
2018-10-09T11:12:49.776Z,100748.73
2018-10-09T11:15:18.349Z,100741.52
2018-10-09T11:17:46.910Z,100737.00
2018-10-09T11:20:16.069Z,100734.69
2018-10-09T11:22:44.785Z,100728.78
2018-10-09T11:25:13.481Z,100732.09
2018-10-09T11:27:42.079Z,100732.97
2018-10-09T11:30:11.000Z,100737.89
2018-10-09T11:32:39.641Z,100736.11
2018-10-09T11:35:08.419Z,100746.90
2018-10-09T11:37:36.978Z,100745.48
2018-10-09T11:40:05.575Z,100742.59
2018-10-09T11:42:34.249Z,100734.55
2018-10-09T11:45:02.899Z,100730.06
2018-10-09T11:47:31.490Z,100738.05
2018-10-09T11:50:00.034Z,100731.00
2018-10-09T11:52:28.639Z,100732.69
2018-10-09T11:54:57.186Z,100726.92
2018-10-09T11:57:25.847Z,100734.78
2018-10-09T11:59:54.593Z,100731.14
2018-10-09T12:02:23.257Z,100729.78
2018-10-09T12:04:51.797Z,100731.22
2018-10-09T12:07:20.734Z,100738.05
2018-10-09T12:09:49.270Z,100734.00
2018-10-09T12:12:18.266Z,100729.39
2018-10-09T12:14:46.811Z,100727.80
2018-10-09T12:17:15.394Z,100727.19
2018-10-09T12:19:44.060Z,100723.67
2018-10-09T12:22:12.661Z,100730.98
2018-10-09T12:24:41.243Z,100728.01
2018-10-09T12:27:09.842Z,100720.39
2018-10-09T12:29:38.598Z,100717.27
2018-10-09T12:32:07.158Z,100716.02
2018-10-09T12:34:35.806Z,100711.98
2018-10-09T12:37:04.438Z,100713.17
2018-10-09T12:39:33.011Z,100712.38
2018-10-09T12:42:01.596Z,100703.68
2018-10-09T12:44:30.197Z,100703.98
2018-10-09T12:46:58.927Z,100707.58
2018-10-09T12:49:27.515Z,100708.37
2018-10-09T12:51:56.188Z,100707.03
2018-10-09T12:54:24.929Z,100707.58
2018-10-09T12:56:53.505Z,100711.66
2018-10-09T12:59:22.077Z,100708.67
2018-10-09T13:01:50.695Z,100709.63
2018-10-09T13:04:19.237Z,100710.48
2018-10-09T13:06:47.933Z,100703.68
2018-10-09T13:09:17.029Z,100702.59
2018-10-09T13:11:45.801Z,100696.89
2018-10-09T13:14:14.426Z,100694.52
2018-10-09T13:16:42.979Z,100685.74
2018-10-09T13:19:11.546Z,100681.43
2018-10-09T13:21:40.980Z,100677.31
2018-10-09T13:24:09.579Z,100676.70
2018-10-09T13:26:38.367Z,100671.72
2018-10-09T13:29:06.946Z,100674.36
2018-10-09T13:31:35.515Z,100674.54
2018-10-09T13:34:04.112Z,100673.69
2018-10-09T13:36:32.830Z,100673.33
2018-10-09T13:39:01.417Z,100676.69
2018-10-09T13:41:30.028Z,100674.72
2018-10-09T13:43:58.627Z,100672.70
2018-10-09T13:46:27.557Z,100669.33
2018-10-09T13:48:56.122Z,100673.66
2018-10-09T13:51:24.762Z,100672.52
2018-10-09T13:53:53.486Z,100670.93
2018-10-09T13:56:22.043Z,100670.13
2018-10-09T13:58:50.591Z,100666.03
2018-10-09T14:01:19.317Z,100667.08
2018-10-09T14:03:48.096Z,100665.22
2018-10-09T14:06:17.001Z,100674.19
2018-10-09T14:08:45.702Z,100673.88
2018-10-09T14:11:14.244Z,100661.37
2018-10-09T14:13:42.810Z,100653.23
2018-10-09T14:16:11.434Z,100653.77
2018-10-09T14:18:40.159Z,100655.98
2018-10-09T14:21:09.007Z,100654.67
2018-10-09T14:23:37.670Z,100652.34
2018-10-09T14:26:06.234Z,100650.71
2018-10-09T14:28:34.836Z,100656.84
2018-10-09T14:31:03.572Z,100656.46
2018-10-09T14:33:32.130Z,100661.08
2018-10-09T14:36:00.750Z,100656.61
2018-10-09T14:38:29.814Z,100656.81
2018-10-09T14:40:58.574Z,100657.52
2018-10-09T14:43:27.157Z,100656.38
2018-10-09T14:45:55.880Z,100657.15
2018-10-09T14:48:24.453Z,100653.82
2018-10-09T14:50:53.062Z,100653.47
2018-10-09T14:53:21.655Z,100649.91
2018-10-09T14:55:50.330Z,100657.26
2018-10-09T14:58:19.129Z,100661.98
2018-10-09T15:00:47.683Z,100660.92
2018-10-09T15:03:16.278Z,100659.31
2018-10-09T15:05:44.979Z,100654.20
2018-10-09T15:08:13.553Z,100652.62
2018-10-09T15:10:42.835Z,100659.66
2018-10-09T15:13:11.498Z,100659.57
2018-10-09T15:15:40.198Z,100664.31
2018-10-09T15:18:09.018Z,100659.85
2018-10-09T15:20:37.641Z,100659.86
2018-10-09T15:23:06.994Z,100655.51
2018-10-09T15:25:35.585Z,100653.79
2018-10-09T15:28:04.638Z,100653.98
2018-10-09T15:30:33.285Z,100656.04
2018-10-09T15:33:02.365Z,100647.83
2018-10-09T15:35:31.049Z,100657.10
2018-10-09T15:37:59.769Z,100661.58
2018-10-09T15:40:28.343Z,100660.83
2018-10-09T15:42:56.961Z,100663.53
2018-10-09T15:45:25.510Z,100664.33
2018-10-09T15:47:54.150Z,100663.59
2018-10-09T15:50:22.859Z,100662.72
2018-10-09T15:52:51.765Z,100662.15
2018-10-09T15:55:20.702Z,100659.96
2018-10-09T15:57:49.293Z,100664.49
2018-10-09T16:00:17.884Z,100667.25
2018-10-09T16:02:46.437Z,100661.70
2018-10-09T16:05:14.995Z,100667.24
2018-10-09T16:07:43.686Z,100673.95
2018-10-09T16:10:12.337Z,100671.83
2018-10-09T16:12:40.987Z,100670.81
2018-10-09T16:15:09.742Z,100666.36
2018-10-09T16:17:38.436Z,100671.20
2018-10-09T16:20:07.265Z,100672.68
2018-10-09T16:22:36.333Z,100660.64
2018-10-09T16:25:05.046Z,100668.08
2018-10-09T16:27:33.770Z,100667.46
2018-10-09T16:30:02.482Z,100668.90
2018-10-09T16:32:31.483Z,100671.68
2018-10-09T16:35:00.207Z,100673.02
2018-10-09T16:37:28.809Z,100677.56
2018-10-09T16:39:57.482Z,100673.32
2018-10-09T16:42:26.195Z,100674.82
2018-10-09T16:44:54.801Z,100683.34
2018-10-09T16:47:23.469Z,100678.68
2018-10-09T16:49:52.181Z,100682.91
2018-10-09T16:52:20.747Z,100685.42
2018-10-09T16:54:49.533Z,100682.42
2018-10-09T16:57:18.154Z,100679.41
2018-10-09T16:59:46.716Z,100688.39
2018-10-09T17:02:15.290Z,100690.83
2018-10-09T17:04:44.766Z,100695.06
2018-10-09T17:07:13.419Z,100691.99
2018-10-09T17:09:42.403Z,100691.85
2018-10-09T17:12:10.975Z,100688.52
2018-10-09T17:14:39.535Z,100698.13
2018-10-09T17:17:08.114Z,100703.44
2018-10-09T17:19:36.715Z,100701.13
2018-10-09T17:22:05.616Z,100704.89
2018-10-09T17:24:34.311Z,100699.12
2018-10-09T17:27:02.886Z,100692.22
2018-10-09T17:29:31.429Z,100690.08
2018-10-09T17:32:00.002Z,100689.00
2018-10-09T17:34:28.650Z,100693.71
2018-10-09T17:36:58.950Z,100689.55
2018-10-09T17:39:27.638Z,100687.64
2018-10-09T17:41:56.431Z,100686.53
2018-10-09T17:44:25.192Z,100689.86
2018-10-09T17:46:53.965Z,100686.40
2018-10-09T17:49:22.823Z,100691.33
2018-10-09T17:51:52.758Z,100702.91
2018-10-09T17:54:21.466Z,100700.27
2018-10-09T17:56:50.870Z,100698.72
2018-10-09T17:59:19.607Z,100700.14
2018-10-09T18:01:48.508Z,100706.16
2018-10-09T18:04:17.166Z,100712.60
2018-10-09T18:06:46.496Z,100713.95
2018-10-09T18:09:15.129Z,100722.66
2018-10-09T18:11:43.795Z,100713.98
2018-10-09T18:14:12.812Z,100725.77
2018-10-09T18:16:41.402Z,100721.06
2018-10-09T18:19:09.986Z,100724.37
2018-10-09T18:21:38.597Z,100720.03
2018-10-09T18:24:07.866Z,100725.02
2018-10-09T18:26:36.546Z,100724.50
2018-10-09T18:29:05.225Z,100728.87
2018-10-09T18:31:33.850Z,100728.45
2018-10-09T18:34:02.566Z,100727.63
2018-10-09T18:36:31.744Z,100734.68
2018-10-09T18:39:00.314Z,100734.25
2018-10-09T18:41:29.316Z,100732.17
2018-10-09T18:43:57.991Z,100733.00
2018-10-09T18:46:26.746Z,100742.48
2018-10-09T18:48:55.373Z,100738.15
2018-10-09T18:51:23.979Z,100734.64
2018-10-09T18:53:52.712Z,100732.78
2018-10-09T18:56:21.269Z,100728.14
2018-10-09T18:58:49.853Z,100729.00
2018-10-09T19:01:18.720Z,100734.67
2018-10-09T19:03:47.337Z,100737.14
2018-10-09T19:06:15.907Z,100733.33
2018-10-09T19:08:44.609Z,100733.86
2018-10-09T19:11:13.174Z,100733.54
2018-10-09T19:13:41.785Z,100736.48
2018-10-09T19:16:10.350Z,100732.66
2018-10-09T19:18:39.002Z,100731.72
2018-10-09T19:21:07.554Z,100741.12
2018-10-09T19:23:36.470Z,100738.04
2018-10-09T19:26:05.138Z,100746.09
2018-10-09T19:28:33.673Z,100756.98
2018-10-09T19:31:02.260Z,100755.02
2018-10-09T19:33:30.850Z,100756.41
2018-10-09T19:35:59.619Z,100749.80
2018-10-09T19:38:28.324Z,100760.95
2018-10-09T19:40:56.889Z,100750.31
2018-10-09T19:43:25.419Z,100761.23
2018-10-09T19:45:53.992Z,100762.77
2018-10-09T19:48:22.558Z,100766.77
2018-10-09T19:50:51.310Z,100766.84
2018-10-09T19:53:20.131Z,100766.56
2018-10-09T19:55:48.727Z,100766.46
2018-10-09T19:58:17.648Z,100767.70
2018-10-09T20:00:46.277Z,100767.56
2018-10-09T20:03:15.665Z,100772.93
2018-10-09T20:05:44.221Z,100769.35
2018-10-09T20:08:12.854Z,100779.22
2018-10-09T20:10:41.413Z,100781.88
2018-10-09T20:13:10.061Z,100781.25
2018-10-09T20:15:38.899Z,100782.56
2018-10-09T20:18:07.600Z,100780.59
2018-10-09T20:20:36.198Z,100781.94
2018-10-09T20:23:04.786Z,100780.70
2018-10-09T20:25:33.359Z,100790.36
2018-10-09T20:28:01.948Z,100790.66
2018-10-09T20:30:30.828Z,100788.40
2018-10-09T20:32:59.527Z,100796.85
2018-10-09T20:35:28.099Z,100787.95
2018-10-09T20:37:56.762Z,100789.96
2018-10-09T20:40:25.333Z,100795.21
2018-10-09T20:42:53.887Z,100787.53
2018-10-09T20:45:22.486Z,100789.73
2018-10-09T20:47:51.081Z,100790.89
2018-10-09T20:50:19.740Z,100792.06
2018-10-09T20:52:48.286Z,100789.06
2018-10-09T20:55:16.863Z,100791.38
2018-10-09T20:57:45.447Z,100787.13
2018-10-09T21:00:14.385Z,100788.64
2018-10-09T21:02:42.972Z,100790.98
2018-10-09T21:05:11.667Z,100788.77
2018-10-09T21:07:40.322Z,100787.74
2018-10-09T21:10:08.941Z,100787.38
2018-10-09T21:12:37.571Z,100785.11
2018-10-09T21:15:06.209Z,100792.41
2018-10-09T21:17:34.880Z,100795.25
2018-10-09T21:20:03.565Z,100791.45
2018-10-09T21:22:32.305Z,100792.17
2018-10-09T21:25:00.953Z,100788.18
2018-10-09T21:27:29.538Z,100785.77
2018-10-09T21:29:58.588Z,100787.16
2018-10-09T21:32:27.563Z,100786.76
2018-10-09T21:34:56.126Z,100789.21
2018-10-09T21:37:24.732Z,100787.41
2018-10-09T21:39:53.445Z,100782.14
2018-10-09T21:42:22.062Z,100784.01
2018-10-09T21:44:50.661Z,100782.37
2018-10-09T21:47:19.230Z,100781.88
2018-10-09T21:49:47.861Z,100789.55
2018-10-09T21:52:16.587Z,100785.80
2018-10-09T21:54:45.189Z,100788.97
2018-10-09T21:57:14.629Z,100789.36
2018-10-09T21:59:43.214Z,100788.02
2018-10-09T22:02:11.894Z,100789.18
2018-10-09T22:04:40.453Z,100786.32
2018-10-09T22:07:09.085Z,100785.49
2018-10-09T22:09:37.669Z,100789.44
2018-10-09T22:12:06.254Z,100793.77
2018-10-09T22:14:34.945Z,100780.08
2018-10-09T22:17:03.552Z,100784.20
2018-10-09T22:19:32.286Z,100788.49
2018-10-09T22:22:01.053Z,100787.98
2018-10-09T22:24:29.877Z,100784.84
2018-10-09T22:26:58.673Z,100786.17
2018-10-09T22:29:27.425Z,100789.48
2018-10-09T22:31:56.014Z,100793.88
2018-10-09T22:34:24.820Z,100798.84
2018-10-09T22:36:53.415Z,100797.38
2018-10-09T22:39:22.135Z,100805.53
2018-10-09T22:41:50.678Z,100805.09
2018-10-09T22:44:19.901Z,100805.27
2018-10-09T22:46:48.573Z,100805.01
2018-10-09T22:49:17.403Z,100805.20
2018-10-09T22:51:46.045Z,100803.55
2018-10-09T22:54:14.856Z,100794.59
2018-10-09T22:56:43.502Z,100796.03
2018-10-09T22:59:12.046Z,100800.21
2018-10-09T23:01:40.588Z,100803.07
2018-10-09T23:04:09.515Z,100804.09
2018-10-09T23:06:38.138Z,100804.34
2018-10-09T23:09:09.167Z,100798.94
2018-10-09T23:11:38.119Z,100795.30
2018-10-09T23:14:06.858Z,100797.80
2018-10-09T23:16:35.822Z,100803.42
2018-10-09T23:19:04.516Z,100801.58
2018-10-09T23:21:33.219Z,100802.91
2018-10-09T23:24:01.777Z,100803.22
2018-10-09T23:26:30.364Z,100797.36
2018-10-09T23:28:58.945Z,100805.67
2018-10-09T23:31:27.477Z,100798.70
2018-10-09T23:33:56.206Z,100798.59
2018-10-09T23:36:24.825Z,100795.50
2018-10-09T23:38:53.400Z,100789.20
2018-10-09T23:41:21.999Z,100789.13
2018-10-09T23:43:50.566Z,100789.76
2018-10-09T23:46:19.108Z,100790.18
2018-10-09T23:48:47.890Z,100790.95
2018-10-09T23:51:16.694Z,100794.31
2018-10-09T23:53:45.797Z,100794.59
2018-10-09T23:56:14.353Z,100791.83
2018-10-09T23:58:42.909Z,100784.95
